M/V MiSS Mary Jean — WDG3633 — position and weather

sailwx.info

Track history (hours):
 
Tides and Currents Weather Stations Pressure Air Temp Water Temp Dewpoint Dewpoint Depression Visibility Wind Speed Wind Dir Waves Ship Positions

M/V MiSS Mary Jean

Owner: D&S Marine Service, LLC, Houma, LA. More information available from US FCC via Universal Licensing System and Coast Guard Vessel Documentation Center.

Last reported at 2017-Sep-20 19:47 UTC. Time now 2017-Sep-22 10:11 UTC.
Position N 29°29' W 094°52'.

Length 22 m; draft 3.2 m.

Type: . MMSI: 367528080.

Date/timePositionNaut miles runAvg speedWind from/ knotsBaromVisibWave heightAir tempDewpointWater temp
2017-Sep-20 19:47N 29°29' W 094°52'2 6.0
2017-Sep-20 19:29N 29°30' W 094°53'3 6.2
2017-Sep-20 19:00N 29°33' W 094°54'3 6.1
2017-Sep-20 18:30N 29°35' W 094°56'3 6.0
2017-Sep-20 18:00N 29°38' W 094°58'3 6.8
2017-Sep-20 17:30N 29°41' W 094°59'3 5.8
2017-Sep-20 16:59N 29°44' W 095°01'2 3.2
2017-Sep-20 16:30N 29°44' W 095°03'0 0.0
2017-Sep-20 14:43N 29°44' W 095°03'0 0.0
2017-Sep-20 13:55N 29°44' W 095°03'0 0.1
2017-Sep-20 13:27N 29°44' W 095°03'0 0.0
2017-Sep-20 09:39N 29°44' W 095°03'0 0.0
2017-Sep-20 08:22N 29°44' W 095°03'0 0.0
2017-Sep-20 07:53N 29°44' W 095°03'0 0.0
2017-Sep-20 04:56N 29°44' W 095°03'0 0.0
2017-Sep-20 03:03N 29°44' W 095°03'0 0.0
2017-Sep-20 01:52N 29°44' W 095°03'0 0.0
2017-Sep-20 00:19N 29°44' W 095°03'0 0.0
2017-Sep-19 22:43N 29°44' W 095°03'0 0.0
2017-Sep-19 20:15N 29°44' W 095°03'0 0.0
2017-Sep-19 19:49N 29°44' W 095°03'0 0.0
2017-Sep-19 19:29N 29°44' W 095°03'0 0.4
2017-Sep-19 19:00N 29°44' W 095°03'1 2.2
2017-Sep-19 18:27N 29°45' W 095°04'1 1.5
2017-Sep-19 17:41N 29°46' W 095°05'1 3.5
2017-Sep-19 17:30N 29°46' W 095°06'0 0.1
2017-Sep-19 16:59N 29°45' W 095°06'0 0.0
2017-Sep-19 16:30N 29°45' W 095°06'0 0.0
2017-Sep-19 15:58N 29°45' W 095°06'0 0.0
2017-Sep-19 15:30N 29°45' W 095°06'0 0.0
2017-Sep-19 14:59N 29°45' W 095°06'0 0.2
2017-Sep-19 13:37N 29°46' W 095°05'0 0.4
2017-Sep-19 12:54N 29°46' W 095°06'0 0.1
2017-Sep-19 12:25N 29°45' W 095°06'0 0.1
2017-Sep-19 11:59N 29°45' W 095°06'0 0.0
2017-Sep-19 11:21N 29°45' W 095°06'0 0.0
2017-Sep-19 11:00N 29°45' W 095°06'0 0.0
2017-Sep-19 10:30N 29°45' W 095°06'0 0.0
2017-Sep-19 10:00N 29°45' W 095°06'0 0.0
2017-Sep-19 09:30N 29°45' W 095°06'0 0.0
2017-Sep-19 09:00N 29°45' W 095°06'0 0.0
2017-Sep-19 08:23N 29°45' W 095°06'0 0.0
2017-Sep-19 07:53N 29°45' W 095°06'0 0.0
2017-Sep-19 07:30N 29°45' W 095°06'0 0.0
2017-Sep-19 06:58N 29°45' W 095°06'0 0.0
2017-Sep-19 06:29N 29°45' W 095°06'0 0.0
2017-Sep-19 06:00N 29°45' W 095°06'0 0.0
2017-Sep-19 05:30N 29°45' W 095°06'0 0.0
2017-Sep-19 04:59N 29°45' W 095°06'0 0.0
2017-Sep-19 04:30N 29°45' W 095°06'0 0.0
2017-Sep-19 03:38N 29°45' W 095°06'0 0.0
2017-Sep-19 02:54N 29°45' W 095°06'0 0.0
2017-Sep-19 00:21N 29°45' W 095°06'1 2.3
2017-Sep-18 23:58N 29°45' W 095°06'2 5.3
2017-Sep-18 23:30N 29°44' W 095°09'4 3.6
2017-Sep-18 22:28N 29°43' W 095°13'0 0.4
2017-Sep-18 21:39N 29°44' W 095°13'0 0.5
2017-Sep-18 21:28N 29°44' W 095°13'0 0.4
2017-Sep-18 21:00N 29°44' W 095°13'0 0.2
2017-Sep-18 20:30N 29°44' W 095°13'0 0.0
2017-Sep-18 19:55N 29°44' W 095°13'0 0.0
2017-Sep-18 19:30N 29°44' W 095°13'0 0.0
2017-Sep-18 19:00N 29°44' W 095°13'0 0.0
2017-Sep-18 18:29N 29°44' W 095°13'1 1.1
2017-Sep-18 17:59N 29°44' W 095°13'1 1.0
2017-Sep-18 17:26N 29°44' W 095°13'0 0.0
2017-Sep-18 16:55N 29°44' W 095°13'0 0.0
2017-Sep-18 13:48N 29°44' W 095°13'0 0.0
2017-Sep-18 13:29N 29°44' W 095°13'0 0.0
2017-Sep-18 05:15N 29°44' W 095°13'0 0.0
2017-Sep-18 04:56N 29°44' W 095°13'0 0.0
2017-Sep-18 04:07N 29°44' W 095°13'0 0.0
2017-Sep-18 03:54N 29°44' W 095°13'0 0.0
2017-Sep-18 03:26N 29°44' W 095°13'0 0.0
2017-Sep-18 02:59N 29°44' W 095°13'0 0.0
2017-Sep-18 02:27N 29°44' W 095°13'2 0.3
2017-Sep-17 19:57N 29°45' W 095°11'2 4.6
2017-Sep-17 19:29N 29°44' W 095°09'3 4.5
2017-Sep-17 18:43N 29°46' W 095°05'1 0.0
2017-Sep-16 09:16N 29°46' W 095°04'0 0.0
2017-Sep-15 00:28N 29°46' W 095°04'1 2.7
2017-Sep-15 00:00N 29°45' W 095°06'0 0.0
2017-Sep-14 23:20N 29°45' W 095°06'0 0.2
2017-Sep-14 22:18N 29°45' W 095°06'1 0.1
2017-Sep-14 03:44N 29°46' W 095°04'0 0.0
2017-Sep-14 02:38N 29°46' W 095°04'0 0.0
2017-Sep-13 22:39N 29°46' W 095°04'0 0.1
2017-Sep-13 19:41N 29°46' W 095°04'1 0.8
2017-Sep-13 18:35N 29°46' W 095°05'1 0.1
2017-Sep-13 08:16N 29°46' W 095°04'0 0.0
2017-Sep-13 07:50N 29°46' W 095°04'0 0.0
2017-Sep-13 07:29N 29°46' W 095°04'0 0.0
2017-Sep-13 05:32N 29°46' W 095°04'0 0.2
2017-Sep-13 05:26N 29°46' W 095°04'0 0.0
2017-Sep-13 02:14N 29°46' W 095°04'0 0.2
2017-Sep-13 02:00N 29°46' W 095°04'1 0.2
2017-Sep-12 21:19N 29°46' W 095°05'0 0.2
2017-Sep-12 19:48N 29°46' W 095°05'2 3.8
2017-Sep-12 19:23N 29°45' W 095°06'2 0.6
2017-Sep-12 15:30N 29°45' W 095°04'3 5.1
2017-Sep-12 14:58N 29°44' W 095°01'0 0.4
2017-Sep-12 14:28N 29°44' W 095°01'0 0.4
2017-Sep-12 13:58N 29°44' W 095°01'0 0.1
2017-Sep-12 13:30N 29°44' W 095°01'1 1.7
2017-Sep-12 13:00N 29°43' W 095°01'2 4.3
2017-Sep-12 12:30N 29°42' W 094°59'3 5.9
2017-Sep-12 12:00N 29°39' W 094°58'3 6.4
2017-Sep-12 11:30N 29°36' W 094°57'3 6.3
2017-Sep-12 11:00N 29°33' W 094°55'3 6.5
2017-Sep-12 10:30N 29°31' W 094°53'  
Track history (hours):
 
Tides and Currents Weather Stations Pressure Air Temp Water Temp Dewpoint Dewpoint Depression Visibility Wind Speed Wind Dir Waves Ship Positions

M/V MiSS Mary Jean

Owner: D&S Marine Service, LLC, Houma, LA. More information available from US FCC via Universal Licensing System and Coast Guard Vessel Documentation Center.

Last reported at 2017-Sep-20 19:47 UTC. Time now 2017-Sep-22 10:11 UTC.
Position N 29°29' W 094°52'.

Length 22 m; draft 3.2 m.

Type: . MMSI: 367528080.

Date/timePositionNaut miles runAvg speedWind from/ knotsBaromVisibWave heightAir tempDewpointWater temp
2017-Sep-20 19:47N 29°29' W 094°52'2 6.0
2017-Sep-20 19:29N 29°30' W 094°53'3 6.2
2017-Sep-20 19:00N 29°33' W 094°54'3 6.1
2017-Sep-20 18:30N 29°35' W 094°56'3 6.0
2017-Sep-20 18:00N 29°38' W 094°58'3 6.8
2017-Sep-20 17:30N 29°41' W 094°59'3 5.8
2017-Sep-20 16:59N 29°44' W 095°01'2 3.2
2017-Sep-20 16:30N 29°44' W 095°03'0 0.0
2017-Sep-20 14:43N 29°44' W 095°03'0 0.0
2017-Sep-20 13:55N 29°44' W 095°03'0 0.1
2017-Sep-20 13:27N 29°44' W 095°03'0 0.0
2017-Sep-20 09:39N 29°44' W 095°03'0 0.0
2017-Sep-20 08:22N 29°44' W 095°03'0 0.0
2017-Sep-20 07:53N 29°44' W 095°03'0 0.0
2017-Sep-20 04:56N 29°44' W 095°03'0 0.0
2017-Sep-20 03:03N 29°44' W 095°03'0 0.0
2017-Sep-20 01:52N 29°44' W 095°03'0 0.0
2017-Sep-20 00:19N 29°44' W 095°03'0 0.0
2017-Sep-19 22:43N 29°44' W 095°03'0 0.0
2017-Sep-19 20:15N 29°44' W 095°03'0 0.0
2017-Sep-19 19:49N 29°44' W 095°03'0 0.0
2017-Sep-19 19:29N 29°44' W 095°03'0 0.4
2017-Sep-19 19:00N 29°44' W 095°03'1 2.2
2017-Sep-19 18:27N 29°45' W 095°04'1 1.5
2017-Sep-19 17:41N 29°46' W 095°05'1 3.5
2017-Sep-19 17:30N 29°46' W 095°06'0 0.1
2017-Sep-19 16:59N 29°45' W 095°06'0 0.0
2017-Sep-19 16:30N 29°45' W 095°06'0 0.0
2017-Sep-19 15:58N 29°45' W 095°06'0 0.0
2017-Sep-19 15:30N 29°45' W 095°06'0 0.0
2017-Sep-19 14:59N 29°45' W 095°06'0 0.2
2017-Sep-19 13:37N 29°46' W 095°05'0 0.4
2017-Sep-19 12:54N 29°46' W 095°06'0 0.1
2017-Sep-19 12:25N 29°45' W 095°06'0 0.1
2017-Sep-19 11:59N 29°45' W 095°06'0 0.0
2017-Sep-19 11:21N 29°45' W 095°06'0 0.0
2017-Sep-19 11:00N 29°45' W 095°06'0 0.0
2017-Sep-19 10:30N 29°45' W 095°06'0 0.0
2017-Sep-19 10:00N 29°45' W 095°06'0 0.0
2017-Sep-19 09:30N 29°45' W 095°06'0 0.0
2017-Sep-19 09:00N 29°45' W 095°06'0 0.0
2017-Sep-19 08:23N 29°45' W 095°06'0 0.0
2017-Sep-19 07:53N 29°45' W 095°06'0 0.0
2017-Sep-19 07:30N 29°45' W 095°06'0 0.0
2017-Sep-19 06:58N 29°45' W 095°06'0 0.0
2017-Sep-19 06:29N 29°45' W 095°06'0 0.0
2017-Sep-19 06:00N 29°45' W 095°06'0 0.0
2017-Sep-19 05:30N 29°45' W 095°06'0 0.0
2017-Sep-19 04:59N 29°45' W 095°06'0 0.0
2017-Sep-19 04:30N 29°45' W 095°06'0 0.0
2017-Sep-19 03:38N 29°45' W 095°06'0 0.0
2017-Sep-19 02:54N 29°45' W 095°06'0 0.0
2017-Sep-19 00:21N 29°45' W 095°06'1 2.3
2017-Sep-18 23:58N 29°45' W 095°06'2 5.3
2017-Sep-18 23:30N 29°44' W 095°09'4 3.6
2017-Sep-18 22:28N 29°43' W 095°13'0 0.4
2017-Sep-18 21:39N 29°44' W 095°13'0 0.5
2017-Sep-18 21:28N 29°44' W 095°13'0 0.4
2017-Sep-18 21:00N 29°44' W 095°13'0 0.2
2017-Sep-18 20:30N 29°44' W 095°13'0 0.0
2017-Sep-18 19:55N 29°44' W 095°13'0 0.0
2017-Sep-18 19:30N 29°44' W 095°13'0 0.0
2017-Sep-18 19:00N 29°44' W 095°13'0 0.0
2017-Sep-18 18:29N 29°44' W 095°13'1 1.1
2017-Sep-18 17:59N 29°44' W 095°13'1 1.0
2017-Sep-18 17:26N 29°44' W 095°13'0 0.0
2017-Sep-18 16:55N 29°44' W 095°13'0 0.0
2017-Sep-18 13:48N 29°44' W 095°13'0 0.0
2017-Sep-18 13:29N 29°44' W 095°13'0 0.0
2017-Sep-18 05:15N 29°44' W 095°13'0 0.0
2017-Sep-18 04:56N 29°44' W 095°13'0 0.0
2017-Sep-18 04:07N 29°44' W 095°13'0 0.0
2017-Sep-18 03:54N 29°44' W 095°13'0 0.0
2017-Sep-18 03:26N 29°44' W 095°13'0 0.0
2017-Sep-18 02:59N 29°44' W 095°13'0 0.0
2017-Sep-18 02:27N 29°44' W 095°13'2 0.3
2017-Sep-17 19:57N 29°45' W 095°11'2 4.6
2017-Sep-17 19:29N 29°44' W 095°09'3 4.5
2017-Sep-17 18:43N 29°46' W 095°05'1 0.0
2017-Sep-16 09:16N 29°46' W 095°04'0 0.0
2017-Sep-15 00:28N 29°46' W 095°04'1 2.7
2017-Sep-15 00:00N 29°45' W 095°06'0 0.0
2017-Sep-14 23:20N 29°45' W 095°06'0 0.2
2017-Sep-14 22:18N 29°45' W 095°06'1 0.1
2017-Sep-14 03:44N 29°46' W 095°04'0 0.0
2017-Sep-14 02:38N 29°46' W 095°04'0 0.0
2017-Sep-13 22:39N 29°46' W 095°04'0 0.1
2017-Sep-13 19:41N 29°46' W 095°04'1 0.8
2017-Sep-13 18:35N 29°46' W 095°05'1 0.1
2017-Sep-13 08:16N 29°46' W 095°04'0 0.0
2017-Sep-13 07:50N 29°46' W 095°04'0 0.0
2017-Sep-13 07:29N 29°46' W 095°04'0 0.0
2017-Sep-13 05:32N 29°46' W 095°04'0 0.2
2017-Sep-13 05:26N 29°46' W 095°04'0 0.0
2017-Sep-13 02:14N 29°46' W 095°04'0 0.2
2017-Sep-13 02:00N 29°46' W 095°04'1 0.2
2017-Sep-12 21:19N 29°46' W 095°05'0 0.2
2017-Sep-12 19:48N 29°46' W 095°05'2 3.8
2017-Sep-12 19:23N 29°45' W 095°06'2 0.6
2017-Sep-12 15:30N 29°45' W 095°04'3 5.1
2017-Sep-12 14:58N 29°44' W 095°01'0 0.4
2017-Sep-12 14:28N 29°44' W 095°01'0 0.4
2017-Sep-12 13:58N 29°44' W 095°01'0 0.1
2017-Sep-12 13:30N 29°44' W 095°01'1 1.7
2017-Sep-12 13:00N 29°43' W 095°01'2 4.3
2017-Sep-12 12:30N 29°42' W 094°59'3 5.9
2017-Sep-12 12:00N 29°39' W 094°58'3 6.4
2017-Sep-12 11:30N 29°36' W 094°57'3 6.3
2017-Sep-12 11:00N 29°33' W 094°55'3 6.5
2017-Sep-12 10:30N 29°31' W 094°53'  

Dump ship's entire track history